createdAt,value
2019-03-29T00:00:03.141Z,1009.24
2019-03-29T00:01:03.323Z,1009.23
2019-03-29T00:02:03.495Z,1009.29
2019-03-29T00:03:03.673Z,1009.26
2019-03-29T00:04:03.862Z,1009.27
2019-03-29T00:05:04.040Z,1009.30
2019-03-29T00:06:04.225Z,1009.30
2019-03-29T00:07:04.390Z,1009.29
2019-03-29T00:08:04.573Z,1009.27
2019-03-29T00:09:04.740Z,1009.27
2019-03-29T00:10:04.916Z,1009.27
2019-03-29T00:11:05.093Z,1009.26
2019-03-29T00:12:05.266Z,1009.23
2019-03-29T00:13:05.445Z,1009.27
2019-03-29T00:14:05.628Z,1009.27
2019-03-29T00:15:05.797Z,1009.25
2019-03-29T00:16:05.970Z,1009.28
2019-03-29T00:17:06.171Z,1009.33
2019-03-29T00:18:06.320Z,1009.29
2019-03-29T00:19:06.492Z,1009.30
2019-03-29T00:20:06.668Z,1009.31
2019-03-29T00:21:06.838Z,1009.31
2019-03-29T00:22:07.019Z,1009.26
2019-03-29T00:23:07.186Z,1009.29
2019-03-29T00:24:07.460Z,1009.29
2019-03-29T00:25:07.540Z,1009.28
2019-03-29T00:26:07.720Z,1009.26
2019-03-29T00:27:07.900Z,1009.28
2019-03-29T00:28:08.080Z,1009.27
2019-03-29T00:29:08.253Z,1009.23
2019-03-29T00:30:08.414Z,1009.26
2019-03-29T00:31:08.587Z,1009.26
2019-03-29T00:32:08.767Z,1009.24
2019-03-29T00:33:08.942Z,1009.22
2019-03-29T00:34:09.116Z,1009.22
2019-03-29T00:35:09.290Z,1009.27
2019-03-29T00:36:09.477Z,1009.22
2019-03-29T00:37:09.651Z,1009.24
2019-03-29T00:38:09.833Z,1009.24
2019-03-29T00:39:10.004Z,1009.26
2019-03-29T00:40:10.174Z,1009.24
2019-03-29T00:41:10.346Z,1009.22
2019-03-29T00:42:10.539Z,1009.19
2019-03-29T00:43:10.739Z,1009.23
2019-03-29T00:44:10.876Z,1009.21
2019-03-29T00:45:11.050Z,1009.19
2019-03-29T00:46:11.366Z,1009.16
2019-03-29T00:47:11.399Z,1009.19
2019-03-29T00:48:11.571Z,1009.17
2019-03-29T00:49:11.747Z,1009.13
2019-03-29T00:50:11.921Z,1009.17
2019-03-29T00:51:12.100Z,1009.12
2019-03-29T00:52:12.274Z,1009.11
2019-03-29T00:53:12.452Z,1009.12
2019-03-29T00:54:12.625Z,1009.12
2019-03-29T00:55:12.798Z,1009.11
2019-03-29T00:56:13.123Z,1009.16
2019-03-29T00:57:13.162Z,1009.12
2019-03-29T00:58:13.320Z,1009.10
2019-03-29T00:59:14.297Z,1009.14
2019-03-29T01:00:13.684Z,1009.09
2019-03-29T01:01:13.846Z,1009.06
2019-03-29T01:02:14.018Z,1009.06
2019-03-29T01:03:14.196Z,1009.09
2019-03-29T01:04:14.373Z,1009.10
2019-03-29T01:05:14.549Z,1009.07
2019-03-29T01:07:14.899Z,1009.01
2019-03-29T01:08:15.066Z,1009.04
2019-03-29T01:09:15.240Z,1009.04
2019-03-29T01:10:15.421Z,1009.06
2019-03-29T01:11:15.599Z,1009.05
2019-03-29T01:13:15.933Z,1009.03
2019-03-29T01:14:16.829Z,1009.04
2019-03-29T01:15:16.282Z,1009.05
2019-03-29T01:16:16.457Z,1009.01
2019-03-29T01:17:16.633Z,1008.99
2019-03-29T01:18:16.807Z,1008.95
2019-03-29T01:19:16.998Z,1008.97
2019-03-29T01:20:17.160Z,1008.95
2019-03-29T01:21:17.331Z,1008.92
2019-03-29T01:22:17.511Z,1008.92
2019-03-29T01:23:17.682Z,1008.89
2019-03-29T01:24:17.858Z,1008.87
2019-03-29T01:25:18.029Z,1008.88
2019-03-29T01:26:18.206Z,1008.85
2019-03-29T01:27:19.113Z,1008.86
2019-03-29T01:28:18.562Z,1008.87
2019-03-29T01:29:18.728Z,1008.84
2019-03-29T01:30:18.913Z,1008.85
2019-03-29T01:31:19.083Z,1008.84
2019-03-29T01:32:19.261Z,1008.81
2019-03-29T01:33:19.432Z,1008.81
2019-03-29T01:34:20.332Z,1008.81
2019-03-29T01:35:19.772Z,1008.76
2019-03-29T01:36:19.941Z,1008.76
2019-03-29T01:37:20.142Z,1008.77
2019-03-29T01:38:22.202Z,1008.76
2019-03-29T01:39:20.457Z,1008.78
2019-03-29T01:40:20.632Z,1008.77
2019-03-29T01:41:20.810Z,1008.79
2019-03-29T01:42:20.990Z,1008.75
2019-03-29T01:43:21.165Z,1008.75
2019-03-29T01:44:21.341Z,1008.76
2019-03-29T01:45:21.515Z,1008.75
2019-03-29T01:46:21.692Z,1008.76
2019-03-29T01:47:21.868Z,1008.74
2019-03-29T01:48:22.415Z,1008.77
2019-03-29T01:49:22.216Z,1008.75
2019-03-29T01:50:22.393Z,1008.74
2019-03-29T01:51:22.575Z,1008.72
2019-03-29T01:52:22.750Z,1008.74
2019-03-29T01:53:22.930Z,1008.74
2019-03-29T01:54:23.101Z,1008.70
2019-03-29T01:55:23.328Z,1008.72
2019-03-29T01:56:23.454Z,1008.73
2019-03-29T01:57:23.634Z,1008.70
2019-03-29T01:58:25.014Z,1008.69
2019-03-29T01:59:23.982Z,1008.67
2019-03-29T02:00:24.159Z,1008.68
2019-03-29T02:01:24.331Z,1008.67
2019-03-29T02:02:24.509Z,1008.64
2019-03-29T02:03:24.686Z,1008.68
2019-03-29T02:04:24.867Z,1008.63
2019-03-29T02:05:25.034Z,1008.63
2019-03-29T02:06:25.210Z,1008.65
2019-03-29T02:07:25.389Z,1008.64
2019-03-29T02:08:35.548Z,1008.61
2019-03-29T02:09:25.829Z,1008.63
2019-03-29T02:10:25.905Z,1008.67
2019-03-29T02:11:26.089Z,1008.63
2019-03-29T02:12:26.258Z,1008.56
2019-03-29T02:13:26.435Z,1008.58
2019-03-29T02:14:26.612Z,1008.56
2019-03-29T02:15:26.787Z,1008.59
2019-03-29T02:16:26.971Z,1008.57
2019-03-29T02:17:27.135Z,1008.59
2019-03-29T02:20:07.656Z,1008.58
2019-03-29T02:21:07.830Z,1008.59
2019-03-29T02:22:09.018Z,1008.58
2019-03-29T02:23:08.196Z,1008.58
2019-03-29T02:24:08.353Z,1008.52
2019-03-29T02:25:08.531Z,1008.56
2019-03-29T02:26:08.946Z,1008.55
2019-03-29T02:27:08.879Z,1008.56
2019-03-29T02:28:09.054Z,1008.55
2019-03-29T02:29:09.268Z,1008.56
2019-03-29T02:30:09.407Z,1008.54
2019-03-29T02:31:09.586Z,1008.57
2019-03-29T02:32:09.754Z,1008.56
2019-03-29T02:33:09.941Z,1008.53
2019-03-29T02:34:10.119Z,1008.48
2019-03-29T02:35:11.474Z,1008.49
2019-03-29T02:36:10.452Z,1008.50
2019-03-29T02:37:10.655Z,1008.49
2019-03-29T02:38:10.807Z,1008.52
2019-03-29T02:39:10.980Z,1008.52
2019-03-29T02:40:11.151Z,1008.50
2019-03-29T02:41:12.237Z,1008.47
2019-03-29T02:42:11.528Z,1008.47
2019-03-29T02:43:11.704Z,1008.47
2019-03-29T02:44:11.882Z,1008.48
2019-03-29T02:45:12.067Z,1008.47
2019-03-29T02:46:12.232Z,1008.49
2019-03-29T02:47:12.441Z,1008.48
2019-03-29T02:48:12.575Z,1008.47
2019-03-29T02:49:13.241Z,1008.49
2019-03-29T02:50:12.924Z,1008.48
2019-03-29T02:51:13.102Z,1008.48
2019-03-29T02:52:13.275Z,1008.46
2019-03-29T02:53:13.554Z,1008.45
2019-03-29T02:54:13.628Z,1008.49
2019-03-29T02:55:13.821Z,1008.44
2019-03-29T02:56:13.975Z,1008.47
2019-03-29T02:57:14.149Z,1008.45
2019-03-29T02:58:14.344Z,1008.42
2019-03-29T02:59:14.505Z,1008.43
2019-03-29T03:00:14.684Z,1008.44
2019-03-29T03:01:14.851Z,1008.43
2019-03-29T03:02:15.028Z,1008.39
2019-03-29T03:03:15.200Z,1008.41
2019-03-29T03:04:15.375Z,1008.38
2019-03-29T03:05:15.551Z,1008.41
2019-03-29T03:06:15.734Z,1008.39
2019-03-29T03:07:15.930Z,1008.37
2019-03-29T03:08:16.077Z,1008.33
2019-03-29T03:09:16.288Z,1008.34
2019-03-29T03:10:16.432Z,1008.33
2019-03-29T03:11:16.602Z,1008.32
2019-03-29T03:12:16.779Z,1008.34
2019-03-29T03:13:16.958Z,1008.34
2019-03-29T03:14:17.243Z,1008.31
2019-03-29T03:15:17.301Z,1008.33
2019-03-29T03:16:17.477Z,1008.34
2019-03-29T03:17:17.656Z,1008.30
2019-03-29T03:18:17.832Z,1008.34
2019-03-29T03:19:18.005Z,1008.30
2019-03-29T03:20:18.197Z,1008.34
2019-03-29T03:21:18.356Z,1008.31
2019-03-29T03:22:18.528Z,1008.29
2019-03-29T03:23:18.705Z,1008.27
2019-03-29T03:24:18.886Z,1008.24
2019-03-29T03:25:19.056Z,1008.28
2019-03-29T03:26:19.228Z,1008.22
2019-03-29T03:27:19.405Z,1008.31
2019-03-29T03:28:19.578Z,1008.27
2019-03-29T03:29:19.753Z,1008.25
2019-03-29T03:30:19.937Z,1008.26
2019-03-29T03:31:20.103Z,1008.31
2019-03-29T03:32:20.292Z,1008.22
2019-03-29T03:33:20.481Z,1008.26
2019-03-29T03:34:20.633Z,1008.26
2019-03-29T03:35:20.806Z,1008.28
2019-03-29T03:36:20.977Z,1008.21
2019-03-29T03:37:21.155Z,1008.27
2019-03-29T03:38:21.327Z,1008.23
2019-03-29T03:39:31.447Z,1008.21
2019-03-29T03:40:21.682Z,1008.22
2019-03-29T03:41:21.850Z,1008.22
2019-03-29T03:42:22.031Z,1008.22
2019-03-29T03:43:22.200Z,1008.18
2019-03-29T03:44:22.375Z,1008.20
2019-03-29T03:45:22.557Z,1008.16
2019-03-29T03:46:22.736Z,1008.15
2019-03-29T03:47:22.912Z,1008.14
2019-03-29T03:48:23.077Z,1008.14
2019-03-29T03:49:23.262Z,1008.18
2019-03-29T03:50:23.428Z,1008.21
2019-03-29T03:51:23.605Z,1008.19
2019-03-29T03:52:23.779Z,1008.19
2019-03-29T03:53:23.961Z,1008.14
2019-03-29T03:54:24.153Z,1008.18
2019-03-29T03:55:24.307Z,1008.12
2019-03-29T03:56:24.479Z,1008.14
2019-03-29T03:57:24.653Z,1008.14
2019-03-29T03:58:24.828Z,1008.15
2019-03-29T03:59:25.008Z,1008.12
2019-03-29T04:00:25.184Z,1008.11
2019-03-29T04:01:25.366Z,1008.10
2019-03-29T04:02:25.547Z,1008.08
2019-03-29T04:03:25.729Z,1008.06
2019-03-29T04:04:25.906Z,1008.11
2019-03-29T04:05:26.070Z,1008.12
2019-03-29T04:06:26.238Z,1008.08
2019-03-29T04:07:26.414Z,1008.12
2019-03-29T04:08:26.592Z,1008.10
2019-03-29T04:09:26.768Z,1008.11
2019-03-29T04:10:26.939Z,1008.07
2019-03-29T04:11:27.112Z,1008.07
2019-03-29T04:12:27.290Z,1008.05
2019-03-29T04:13:27.487Z,1008.02
2019-03-29T04:14:27.645Z,1008.02
2019-03-29T04:15:27.823Z,1008.02
2019-03-29T04:16:27.990Z,1008.04
2019-03-29T04:17:28.165Z,1008.01
2019-03-29T04:18:28.338Z,1008.01
2019-03-29T04:19:28.511Z,1007.97
2019-03-29T04:20:29.272Z,1008.02
2019-03-29T04:21:28.811Z,1007.97
2019-03-29T04:22:29.012Z,1007.93
2019-03-29T04:23:29.157Z,1007.95
2019-03-29T04:24:29.333Z,1007.93
2019-03-29T04:25:29.509Z,1007.93
2019-03-29T04:26:29.686Z,1007.92
2019-03-29T04:27:29.869Z,1007.92
2019-03-29T04:28:30.032Z,1007.92
2019-03-29T04:29:30.217Z,1007.92
2019-03-29T04:30:30.381Z,1007.91
2019-03-29T04:31:30.559Z,1007.93
2019-03-29T04:32:30.840Z,1007.88
2019-03-29T04:33:30.904Z,1007.89
2019-03-29T04:34:31.099Z,1007.89
2019-03-29T04:35:31.257Z,1007.88
2019-03-29T04:36:31.434Z,1007.90
2019-03-29T04:37:31.614Z,1007.91
2019-03-29T04:38:31.783Z,1007.92
2019-03-29T04:39:31.960Z,1007.92
2019-03-29T04:40:32.137Z,1007.90
2019-03-29T04:41:32.313Z,1007.96
2019-03-29T04:42:32.486Z,1007.90
2019-03-29T04:43:32.661Z,1007.98
2019-03-29T04:44:32.832Z,1007.93
2019-03-29T04:45:33.006Z,1007.96
2019-03-29T04:46:33.183Z,1007.99
2019-03-29T04:47:33.376Z,1007.96
2019-03-29T04:48:33.599Z,1007.96
2019-03-29T04:49:33.708Z,1007.98
2019-03-29T04:50:33.879Z,1007.96
2019-03-29T04:51:34.055Z,1007.95
2019-03-29T04:52:34.232Z,1007.93
2019-03-29T04:53:34.405Z,1007.94
2019-03-29T04:54:34.589Z,1007.93
2019-03-29T04:55:34.755Z,1007.94
2019-03-29T04:56:34.945Z,1007.90
2019-03-29T04:57:35.100Z,1007.92
2019-03-29T04:58:35.279Z,1007.93
2019-03-29T04:59:35.459Z,1007.95
2019-03-29T05:00:35.633Z,1007.89
2019-03-29T05:01:35.804Z,1007.94
2019-03-29T05:02:35.992Z,1007.96
2019-03-29T05:03:36.155Z,1007.96
2019-03-29T05:04:36.325Z,1007.96
2019-03-29T05:05:36.509Z,1008.00
2019-03-29T05:06:36.679Z,1007.98
2019-03-29T05:07:37.310Z,1007.99
2019-03-29T05:08:37.030Z,1007.96
2019-03-29T05:09:37.203Z,1007.97
2019-03-29T05:10:37.377Z,1007.99
2019-03-29T05:11:37.556Z,1007.98
2019-03-29T05:12:37.729Z,1007.98
2019-03-29T05:13:37.905Z,1007.97
2019-03-29T05:14:38.077Z,1007.95
2019-03-29T05:15:38.252Z,1007.96
2019-03-29T05:16:38.431Z,1007.98
2019-03-29T05:17:38.601Z,1007.96
2019-03-29T05:18:38.776Z,1007.99
2019-03-29T05:19:38.952Z,1008.03
2019-03-29T05:20:39.122Z,1008.02
2019-03-29T05:21:39.300Z,1007.98
2019-03-29T05:22:39.475Z,1008.01
2019-03-29T05:23:39.648Z,1007.99
2019-03-29T05:24:39.825Z,1007.98
2019-03-29T05:25:40.001Z,1008.01
2019-03-29T05:26:40.174Z,1007.98
2019-03-29T05:27:40.351Z,1007.97
2019-03-29T05:28:40.524Z,1007.97
2019-03-29T05:29:40.698Z,1007.95
2019-03-29T05:30:40.874Z,1008.00
2019-03-29T05:31:41.048Z,1008.01
2019-03-29T05:32:41.223Z,1007.97
2019-03-29T05:33:41.398Z,1007.95
2019-03-29T05:34:41.577Z,1008.00
2019-03-29T05:35:41.748Z,1007.99
2019-03-29T05:36:41.933Z,1007.97
2019-03-29T05:37:42.100Z,1008.02
2019-03-29T05:38:42.269Z,1008.02
2019-03-29T05:39:42.445Z,1008.01
2019-03-29T05:40:42.624Z,1008.01
2019-03-29T05:41:42.791Z,1008.03
2019-03-29T05:42:42.967Z,1008.01
2019-03-29T05:43:43.146Z,1007.99
2019-03-29T05:44:43.317Z,1008.00
2019-03-29T05:45:43.490Z,1008.00
2019-03-29T05:46:43.667Z,1007.99
2019-03-29T05:47:43.847Z,1008.00
2019-03-29T05:48:44.019Z,1008.02
2019-03-29T05:49:44.791Z,1008.02
2019-03-29T05:50:44.331Z,1008.02
2019-03-29T05:51:44.507Z,1008.03
2019-03-29T05:52:44.685Z,1008.03
2019-03-29T05:53:44.856Z,1008.08
2019-03-29T05:54:45.033Z,1008.07
2019-03-29T05:55:48.212Z,1008.10
2019-03-29T05:56:45.379Z,1008.09
2019-03-29T05:57:45.555Z,1008.06
2019-03-29T05:58:45.732Z,1008.03
2019-03-29T05:59:45.903Z,1008.04
2019-03-29T06:00:46.079Z,1008.04
2019-03-29T06:01:46.261Z,1008.05
2019-03-29T06:02:46.433Z,1008.06
2019-03-29T06:03:46.609Z,1008.06
2019-03-29T06:04:46.784Z,1008.08
2019-03-29T06:05:46.954Z,1008.09
2019-03-29T06:06:47.124Z,1008.10
2019-03-29T06:07:47.321Z,1008.13
2019-03-29T06:08:47.475Z,1008.15
2019-03-29T06:09:47.655Z,1008.16
2019-03-29T06:10:49.574Z,1008.10
2019-03-29T06:11:48.008Z,1008.11
2019-03-29T06:12:48.178Z,1008.16
2019-03-29T06:13:48.351Z,1008.23
2019-03-29T06:14:48.531Z,1008.19
2019-03-29T06:15:48.707Z,1008.23
2019-03-29T06:16:48.884Z,1008.25
2019-03-29T06:17:49.464Z,1008.25
2019-03-29T06:18:49.245Z,1008.19
2019-03-29T06:19:49.420Z,1008.14
2019-03-29T06:20:49.590Z,1008.16
2019-03-29T06:21:49.770Z,1008.14
2019-03-29T06:22:49.949Z,1008.21
2019-03-29T06:23:50.129Z,1008.17
2019-03-29T06:24:50.311Z,1008.16
2019-03-29T06:25:50.487Z,1008.16
2019-03-29T06:26:50.671Z,1008.12
2019-03-29T06:27:50.848Z,1008.18
2019-03-29T06:28:51.020Z,1008.15
2019-03-29T06:29:51.198Z,1008.15
2019-03-29T06:30:51.378Z,1008.13
2019-03-29T06:31:51.555Z,1008.13
2019-03-29T06:32:51.732Z,1008.11
2019-03-29T06:33:51.912Z,1008.08
2019-03-29T06:34:52.095Z,1008.08
2019-03-29T06:35:52.264Z,1008.06
2019-03-29T06:36:53.295Z,1008.07
2019-03-29T06:37:52.597Z,1008.03
2019-03-29T06:39:52.963Z,1008.06
2019-03-29T06:41:02.667Z,1008.08
2019-03-29T06:41:53.315Z,1008.07
2019-03-29T06:42:53.505Z,1008.09
2019-03-29T06:43:54.302Z,1008.10
2019-03-29T06:44:53.864Z,1008.13
2019-03-29T06:45:54.032Z,1008.11
2019-03-29T06:46:54.209Z,1008.14
2019-03-29T06:47:54.386Z,1008.08
2019-03-29T06:48:54.566Z,1008.09
2019-03-29T06:49:54.750Z,1008.10
2019-03-29T06:50:54.918Z,1008.10
2019-03-29T06:51:55.101Z,1008.13
2019-03-29T06:52:55.273Z,1008.09
2019-03-29T06:53:55.459Z,1008.09
2019-03-29T06:54:55.632Z,1008.05
2019-03-29T06:55:59.101Z,1008.07
2019-03-29T06:56:55.980Z,1008.09
2019-03-29T06:57:56.165Z,1008.06
2019-03-29T06:58:56.337Z,1008.10
2019-03-29T06:59:56.513Z,1008.13
2019-03-29T07:00:56.689Z,1008.18
2019-03-29T07:01:56.866Z,1008.18
2019-03-29T07:02:57.049Z,1008.14
2019-03-29T07:03:57.221Z,1008.14
2019-03-29T07:04:57.396Z,1008.19
2019-03-29T07:05:57.573Z,1008.13
2019-03-29T07:06:57.796Z,1008.17
2019-03-29T07:07:57.935Z,1008.18
2019-03-29T07:08:58.111Z,1008.15
2019-03-29T07:09:58.288Z,1008.17
2019-03-29T07:10:58.467Z,1008.16
2019-03-29T07:11:58.642Z,1008.18
2019-03-29T07:12:58.825Z,1008.25
2019-03-29T07:13:59.000Z,1008.20
2019-03-29T07:14:59.171Z,1008.29
2019-03-29T07:15:59.350Z,1008.24
2019-03-29T07:16:59.528Z,1008.31
2019-03-29T07:17:59.703Z,1008.31
2019-03-29T07:18:59.885Z,1008.29
2019-03-29T07:20:00.151Z,1008.33
2019-03-29T07:21:00.250Z,1008.34
2019-03-29T07:22:00.421Z,1008.35
2019-03-29T07:23:00.601Z,1008.32
2019-03-29T07:24:00.779Z,1008.31
2019-03-29T07:25:00.961Z,1008.35
2019-03-29T07:26:01.144Z,1008.38
2019-03-29T07:27:01.391Z,1008.42
2019-03-29T07:28:01.524Z,1008.45
2019-03-29T07:29:01.752Z,1008.43
2019-03-29T07:30:01.849Z,1008.45
2019-03-29T07:31:02.035Z,1008.39
2019-03-29T07:32:02.214Z,1008.38
2019-03-29T07:33:02.386Z,1008.39
2019-03-29T07:34:02.575Z,1008.38
2019-03-29T07:35:02.748Z,1008.40
2019-03-29T07:36:02.951Z,1008.38
2019-03-29T07:37:05.809Z,1008.42
2019-03-29T07:38:03.293Z,1008.40
2019-03-29T07:39:03.478Z,1008.42
2019-03-29T07:40:03.666Z,1008.43
2019-03-29T07:41:03.844Z,1008.43
2019-03-29T07:42:04.031Z,1008.40
2019-03-29T07:43:04.213Z,1008.39
2019-03-29T07:44:04.400Z,1008.40
2019-03-29T07:45:04.577Z,1008.40
2019-03-29T07:46:04.777Z,1008.37
2019-03-29T07:47:04.938Z,1008.34
2019-03-29T07:48:05.123Z,1008.32
2019-03-29T07:49:05.310Z,1008.32
2019-03-29T07:50:05.509Z,1008.31
2019-03-29T07:51:05.679Z,1008.31
2019-03-29T07:52:05.861Z,1008.26
2019-03-29T07:53:06.050Z,1008.27
2019-03-29T07:54:06.229Z,1008.26
2019-03-29T07:55:06.416Z,1008.23
2019-03-29T07:56:06.598Z,1008.25
2019-03-29T07:57:06.784Z,1008.23
2019-03-29T07:58:06.973Z,1008.23
2019-03-29T07:59:07.165Z,1008.20
2019-03-29T08:00:07.342Z,1008.22
2019-03-29T08:01:08.369Z,1008.22
2019-03-29T08:02:07.743Z,1008.19
2019-03-29T08:03:07.904Z,1008.19
2019-03-29T08:04:08.088Z,1008.21
2019-03-29T08:05:08.277Z,1008.18
2019-03-29T08:06:08.463Z,1008.23
2019-03-29T08:07:08.650Z,1008.23
2019-03-29T08:08:22.697Z,1008.18
2019-03-29T08:09:21.774Z,1008.18
2019-03-29T08:10:09.262Z,1008.16
2019-03-29T08:11:09.450Z,1008.21
2019-03-29T08:12:09.647Z,1008.20
2019-03-29T08:13:09.826Z,1008.20
2019-03-29T08:14:10.026Z,1008.24
2019-03-29T08:15:10.221Z,1008.21
2019-03-29T08:16:10.380Z,1008.20
2019-03-29T08:17:10.566Z,1008.18
2019-03-29T08:18:10.752Z,1008.24
2019-03-29T08:19:10.941Z,1008.20
2019-03-29T08:20:37.588Z,1008.10
2019-03-29T08:21:11.309Z,1008.14
2019-03-29T08:22:11.497Z,1007.94
2019-03-29T08:23:11.684Z,1007.99
2019-03-29T08:24:12.014Z,1007.97
2019-03-29T08:25:12.054Z,1008.01
2019-03-29T08:26:12.234Z,1008.18
2019-03-29T08:27:12.422Z,1008.00
2019-03-29T08:28:12.604Z,1008.01
2019-03-29T08:29:12.791Z,1007.93
2019-03-29T08:30:12.984Z,1007.94
2019-03-29T08:31:13.161Z,1007.94
2019-03-29T08:32:13.334Z,1007.88
2019-03-29T08:33:13.530Z,1007.86
2019-03-29T08:34:13.702Z,1007.86
2019-03-29T08:35:13.887Z,1007.86
2019-03-29T08:36:14.070Z,1007.87
2019-03-29T08:37:14.249Z,1007.89
2019-03-29T08:38:14.450Z,1007.88
2019-03-29T08:39:27.241Z,1007.85
2019-03-29T08:40:14.799Z,1007.87
2019-03-29T08:41:15.841Z,1007.89
2019-03-29T08:42:18.417Z,1007.86
2019-03-29T08:43:15.324Z,1007.91
2019-03-29T08:44:15.509Z,1007.90
2019-03-29T08:45:15.753Z,1007.90
2019-03-29T08:46:15.871Z,1007.83
2019-03-29T08:47:16.048Z,1007.89
2019-03-29T08:48:16.255Z,1007.86
2019-03-29T08:49:16.933Z,1007.89
2019-03-29T08:50:16.617Z,1007.87
2019-03-29T08:51:16.755Z,1007.88
2019-03-29T08:52:16.932Z,1007.87
2019-03-29T08:53:17.112Z,1007.85
2019-03-29T08:54:17.300Z,1007.81
2019-03-29T08:55:17.885Z,1007.81
2019-03-29T08:56:17.647Z,1007.80
2019-03-29T08:57:18.346Z,1007.82
2019-03-29T08:58:18.024Z,1007.78
2019-03-29T08:59:18.210Z,1007.77
2019-03-29T09:00:18.400Z,1007.80
2019-03-29T09:01:19.585Z,1007.80
2019-03-29T09:02:18.750Z,1007.76
2019-03-29T09:03:18.938Z,1007.77
2019-03-29T09:04:21.684Z,1007.72
2019-03-29T09:05:19.290Z,1007.68
2019-03-29T09:06:19.502Z,1007.75
2019-03-29T09:07:19.657Z,1007.74
2019-03-29T09:08:19.953Z,1007.74
2019-03-29T09:09:19.988Z,1007.72
2019-03-29T09:10:20.167Z,1007.72
2019-03-29T09:11:20.363Z,1007.72
2019-03-29T09:12:21.351Z,1007.76
2019-03-29T09:13:20.658Z,1007.69
2019-03-29T09:14:20.845Z,1007.77
2019-03-29T09:15:21.018Z,1007.71
2019-03-29T09:16:21.199Z,1007.68
2019-03-29T09:17:21.376Z,1007.68
2019-03-29T09:18:21.557Z,1007.71
2019-03-29T09:19:21.740Z,1007.68
2019-03-29T09:20:21.948Z,1007.70
2019-03-29T09:21:22.095Z,1007.72
2019-03-29T09:22:22.281Z,1007.70
2019-03-29T09:23:22.469Z,1007.69
2019-03-29T09:24:22.747Z,1007.77
2019-03-29T09:25:22.822Z,1007.67
2019-03-29T09:26:23.002Z,1007.70
2019-03-29T09:27:23.188Z,1007.64
2019-03-29T09:28:24.361Z,1007.78
2019-03-29T09:29:23.763Z,1007.60
2019-03-29T09:30:24.181Z,1007.58
2019-03-29T09:31:24.316Z,1007.59
2019-03-29T09:32:24.048Z,1007.61
2019-03-29T09:33:24.226Z,1007.58
2019-03-29T09:34:24.442Z,1007.57
2019-03-29T09:35:24.587Z,1007.63
2019-03-29T09:36:24.768Z,1007.61
2019-03-29T09:37:24.947Z,1007.57
2019-03-29T09:38:25.130Z,1007.58
2019-03-29T09:39:25.309Z,1007.58
2019-03-29T09:40:25.493Z,1007.54
2019-03-29T09:41:25.669Z,1007.54
2019-03-29T09:42:29.413Z,1007.51
2019-03-29T09:43:26.696Z,1007.48
2019-03-29T09:44:26.362Z,1007.47
2019-03-29T09:45:27.460Z,1007.50
2019-03-29T09:46:26.559Z,1007.48
2019-03-29T09:47:27.383Z,1007.50
2019-03-29T09:48:28.057Z,1007.55
2019-03-29T09:49:27.216Z,1007.63
2019-03-29T09:50:27.438Z,1007.56
2019-03-29T09:51:27.593Z,1007.55
2019-03-29T09:52:27.702Z,1007.57
2019-03-29T09:53:27.881Z,1007.57
2019-03-29T09:54:28.142Z,1007.53
2019-03-29T09:55:28.245Z,1007.52
2019-03-29T09:56:38.865Z,1007.49
2019-03-29T09:57:37.366Z,1007.46
2019-03-29T09:58:28.737Z,1007.45
2019-03-29T09:59:28.872Z,1007.46
2019-03-29T10:00:29.045Z,1007.44
2019-03-29T10:01:29.513Z,1007.41
2019-03-29T10:02:29.513Z,1007.41
2019-03-29T10:03:29.655Z,1007.41
2019-03-29T10:04:29.905Z,1007.42
2019-03-29T10:05:31.455Z,1007.42
2019-03-29T10:06:30.218Z,1007.49
2019-03-29T10:07:30.410Z,1007.43
2019-03-29T10:08:30.572Z,1007.41
2019-03-29T10:09:30.793Z,1007.44
2019-03-29T10:10:34.200Z,1007.40
2019-03-29T10:11:31.172Z,1007.47
2019-03-29T10:12:42.692Z,1007.37
2019-03-29T10:13:31.425Z,1007.35
2019-03-29T10:14:33.471Z,1007.42
2019-03-29T10:15:31.944Z,1007.39
2019-03-29T10:16:31.956Z,1007.41
2019-03-29T10:17:32.134Z,1007.45
2019-03-29T10:18:32.315Z,1007.45
2019-03-29T10:19:32.483Z,1007.39
2019-03-29T10:20:32.982Z,1007.38
2019-03-29T10:21:34.300Z,1007.35
2019-03-29T10:22:33.178Z,1007.29
2019-03-29T10:23:33.399Z,1007.27
2019-03-29T10:24:33.430Z,1007.26
2019-03-29T10:25:34.316Z,1007.28
2019-03-29T10:26:34.884Z,1007.28
2019-03-29T10:27:34.155Z,1007.22
2019-03-29T10:28:34.249Z,1007.21
2019-03-29T10:29:34.431Z,1007.22
2019-03-29T10:30:34.611Z,1007.22
2019-03-29T10:31:34.881Z,1007.20
2019-03-29T10:32:34.952Z,1007.17
2019-03-29T10:33:35.136Z,1007.18
2019-03-29T10:34:37.519Z,1007.20
2019-03-29T10:35:50.328Z,1007.17
2019-03-29T10:36:35.748Z,1007.18
2019-03-29T10:37:35.949Z,1007.14
2019-03-29T10:38:36.100Z,1007.09
2019-03-29T10:39:36.285Z,1007.13
2019-03-29T10:40:36.470Z,1007.11
2019-03-29T10:41:38.031Z,1007.05
2019-03-29T10:42:39.777Z,1007.03
2019-03-29T10:43:37.009Z,1007.07
2019-03-29T10:44:37.194Z,1007.03
2019-03-29T10:45:40.353Z,1007.04
2019-03-29T10:46:37.561Z,1007.05
2019-03-29T10:47:43.772Z,1007.03
2019-03-29T10:48:37.923Z,1007.01
2019-03-29T10:49:38.101Z,1007.00
2019-03-29T10:50:38.900Z,1006.92
2019-03-29T10:51:38.444Z,1006.91
2019-03-29T10:52:38.636Z,1006.92
2019-03-29T10:53:38.822Z,1006.91
2019-03-29T10:54:38.994Z,1006.92
2019-03-29T10:55:39.176Z,1006.89
2019-03-29T10:56:39.362Z,1006.90
2019-03-29T10:57:39.553Z,1006.88
2019-03-29T10:58:39.731Z,1006.91
2019-03-29T10:59:39.910Z,1006.87
2019-03-29T11:00:40.153Z,1006.81
2019-03-29T11:01:40.415Z,1006.85
2019-03-29T11:02:40.609Z,1006.87
2019-03-29T11:03:41.403Z,1006.86
2019-03-29T11:04:41.041Z,1006.81
2019-03-29T11:05:41.190Z,1006.80
2019-03-29T11:06:41.341Z,1006.81
2019-03-29T11:07:41.527Z,1006.78
2019-03-29T11:08:43.554Z,1006.80
2019-03-29T11:09:42.005Z,1006.75
2019-03-29T11:10:42.258Z,1006.78
2019-03-29T11:11:42.235Z,1006.74
2019-03-29T11:12:42.430Z,1006.78
2019-03-29T11:13:42.602Z,1006.72
2019-03-29T11:14:42.792Z,1006.77
2019-03-29T11:15:42.973Z,1006.79
2019-03-29T11:16:43.162Z,1006.75
2019-03-29T11:17:43.343Z,1006.72
2019-03-29T11:18:45.749Z,1006.61
2019-03-29T11:19:43.709Z,1006.63
2019-03-29T11:20:43.904Z,1006.61
2019-03-29T11:21:44.079Z,1006.62
2019-03-29T11:22:44.264Z,1006.60
2019-03-29T11:23:44.445Z,1006.61
2019-03-29T11:24:44.632Z,1006.60
2019-03-29T11:25:48.268Z,1006.59
2019-03-29T11:26:44.998Z,1006.59
2019-03-29T11:27:45.179Z,1006.54
2019-03-29T11:28:45.361Z,1006.55
2019-03-29T11:29:45.540Z,1006.50
2019-03-29T11:30:45.729Z,1006.51
2019-03-29T11:31:45.919Z,1006.54
2019-03-29T11:32:46.095Z,1006.52
2019-03-29T11:33:46.280Z,1006.58
2019-03-29T11:34:46.463Z,1006.53
2019-03-29T11:35:46.646Z,1006.51
2019-03-29T11:36:46.840Z,1006.46
2019-03-29T11:37:47.035Z,1006.51
2019-03-29T11:38:47.188Z,1006.48
2019-03-29T11:39:47.364Z,1006.50
2019-03-29T11:40:47.562Z,1006.50
2019-03-29T11:41:47.736Z,1006.50
2019-03-29T11:42:47.928Z,1006.47
2019-03-29T11:43:48.102Z,1006.44
2019-03-29T11:44:48.540Z,1006.42
2019-03-29T11:45:48.589Z,1006.38
2019-03-29T11:46:48.633Z,1006.37
2019-03-29T11:47:49.419Z,1006.31
2019-03-29T11:48:49.745Z,1006.25
2019-03-29T11:49:52.865Z,1006.29
2019-03-29T11:50:49.421Z,1006.26
2019-03-29T11:51:49.693Z,1006.22
2019-03-29T11:52:49.770Z,1006.25
2019-03-29T11:53:51.444Z,1006.22
2019-03-29T11:54:50.127Z,1006.21
2019-03-29T11:55:50.300Z,1006.17
2019-03-29T11:56:50.489Z,1006.14
2019-03-29T11:57:50.666Z,1006.15
2019-03-29T11:58:52.150Z,1006.12
2019-03-29T11:59:51.022Z,1006.13
2019-03-29T12:00:51.199Z,1006.11
2019-03-29T12:01:51.382Z,1006.07
2019-03-29T12:02:51.572Z,1006.07
2019-03-29T12:03:51.743Z,1006.11
2019-03-29T12:04:51.923Z,1006.12
2019-03-29T12:05:52.104Z,1006.07
2019-03-29T12:06:52.284Z,1006.02
2019-03-29T12:07:52.474Z,1006.07
2019-03-29T12:08:52.643Z,1006.07
2019-03-29T12:09:52.849Z,1006.00
2019-03-29T12:10:53.011Z,1006.03
2019-03-29T12:11:53.193Z,1005.98